createdAt,value
2022-08-28T00:00:17.472Z,9.52
2022-08-28T00:02:46.620Z,9.02
2022-08-28T00:05:16.009Z,8.95
2022-08-28T00:07:47.514Z,8.98
2022-08-28T00:10:17.232Z,8.52
2022-08-28T00:12:47.016Z,8.80
2022-08-28T00:15:20.621Z,10.38
2022-08-28T00:17:49.570Z,10.63
2022-08-28T00:20:18.998Z,9.20
2022-08-28T00:22:48.607Z,8.77
2022-08-28T00:25:19.307Z,9.55
2022-08-28T00:27:55.597Z,8.95
2022-08-28T00:30:44.221Z,9.35
2022-08-28T00:33:19.856Z,9.70
2022-08-28T00:35:51.721Z,10.18
2022-08-28T00:38:21.076Z,10.52
2022-08-28T00:40:52.651Z,10.25
2022-08-28T00:43:47.866Z,10.48
2022-08-28T00:46:20.362Z,10.35
2022-08-28T00:48:48.424Z,10.13
2022-08-28T00:51:36.817Z,10.05
2022-08-28T00:54:07.745Z,10.38
2022-08-28T00:56:36.376Z,9.57
2022-08-28T00:59:12.048Z,11.20
2022-08-28T01:01:39.478Z,9.25
2022-08-28T01:04:06.995Z,10.05
2022-08-28T01:06:35.871Z,9.70
2022-08-28T01:09:04.259Z,9.30
2022-08-28T01:11:32.619Z,9.82
2022-08-28T01:14:03.207Z,9.07
2022-08-28T01:16:33.861Z,9.60
2022-08-28T01:19:04.385Z,8.45
2022-08-28T01:21:47.155Z,9.18
2022-08-28T01:24:17.462Z,9.80
2022-08-28T01:26:44.959Z,9.63
2022-08-28T01:29:13.242Z,10.23
2022-08-28T01:31:41.093Z,10.10
2022-08-28T01:34:12.420Z,9.93
2022-08-28T01:36:40.493Z,9.90
2022-08-28T01:39:21.395Z,9.57
2022-08-28T01:41:52.111Z,9.87
2022-08-28T01:44:24.779Z,9.85
2022-08-28T01:46:58.278Z,9.85
2022-08-28T01:49:29.451Z,9.02
2022-08-28T01:51:58.096Z,9.10
2022-08-28T01:54:26.441Z,10.00
2022-08-28T01:56:55.093Z,8.70
2022-08-28T01:59:23.152Z,9.52
2022-08-28T02:01:50.183Z,9.00
2022-08-28T02:04:17.431Z,9.27
2022-08-28T02:06:44.538Z,8.90
2022-08-28T02:09:14.566Z,9.43
2022-08-28T02:11:46.349Z,9.15
2022-08-28T02:14:14.127Z,9.68
2022-08-28T02:16:41.116Z,8.65
2022-08-28T02:19:08.526Z,8.55
2022-08-28T02:21:35.646Z,8.40
2022-08-28T02:24:03.265Z,9.27
2022-08-28T02:26:31.783Z,7.72
2022-08-28T02:28:59.522Z,9.32
2022-08-28T02:31:27.549Z,8.73
2022-08-28T02:33:55.590Z,8.73
2022-08-28T02:36:23.445Z,8.13
2022-08-28T02:38:57.346Z,7.90
2022-08-28T02:41:25.659Z,8.20
2022-08-28T02:43:53.295Z,8.48
2022-08-28T02:46:20.445Z,7.80
2022-08-28T02:48:47.466Z,7.15
2022-08-28T02:51:14.951Z,8.18
2022-08-28T02:53:43.193Z,8.10
2022-08-28T02:56:10.941Z,8.15
2022-08-28T02:58:39.622Z,7.75
2022-08-28T03:01:11.315Z,7.68
2022-08-28T03:03:40.925Z,7.18
2022-08-28T03:06:12.521Z,8.60
2022-08-28T03:08:42.090Z,8.38
2022-08-28T03:11:09.865Z,7.75
2022-08-28T03:13:36.921Z,8.93
2022-08-28T03:16:05.029Z,8.95
2022-08-28T03:18:33.130Z,7.72
2022-08-28T03:21:00.874Z,7.32
2022-08-28T03:23:28.017Z,7.60
2022-08-28T03:25:58.065Z,7.95
2022-08-28T03:28:31.798Z,7.70
2022-08-28T03:30:59.193Z,7.07
2022-08-28T03:33:26.842Z,7.82
2022-08-28T03:35:55.598Z,7.47
2022-08-28T03:38:23.021Z,6.90
2022-08-28T03:40:53.444Z,7.53
2022-08-28T03:43:24.415Z,7.65
2022-08-28T03:46:01.279Z,7.68
2022-08-28T03:48:34.729Z,7.43
2022-08-28T03:51:02.318Z,7.10
2022-08-28T03:53:30.237Z,7.45
2022-08-28T03:55:58.080Z,7.75
2022-08-28T03:58:26.797Z,7.75
2022-08-28T04:00:54.460Z,8.23
2022-08-28T04:03:21.648Z,7.40
2022-08-28T04:05:48.765Z,7.60
2022-08-28T04:08:18.390Z,7.70
2022-08-28T04:10:47.198Z,8.15
2022-08-28T04:13:16.838Z,7.13
2022-08-28T04:15:44.096Z,7.68
2022-08-28T04:18:12.217Z,8.00
2022-08-28T04:20:40.100Z,7.88
2022-08-28T04:23:09.921Z,8.07
2022-08-28T04:25:40.789Z,7.70
2022-08-28T04:28:07.926Z,7.60
2022-08-28T04:30:35.044Z,7.85
2022-08-28T04:33:02.373Z,6.80
2022-08-28T04:35:29.425Z,7.57
2022-08-28T04:37:58.817Z,7.07
2022-08-28T04:40:26.119Z,6.63
2022-08-28T04:42:53.198Z,8.02
2022-08-28T04:45:20.181Z,7.10
2022-08-28T04:47:47.181Z,7.22
2022-08-28T04:50:15.240Z,8.35
2022-08-28T04:52:43.463Z,8.45
2022-08-28T04:55:10.900Z,7.70
2022-08-28T04:57:37.894Z,7.70
2022-08-28T05:00:07.114Z,7.53
2022-08-28T05:02:34.127Z,7.70
2022-08-28T05:05:01.224Z,7.65
2022-08-28T05:07:29.373Z,7.65
2022-08-28T05:09:57.138Z,7.38
2022-08-28T05:12:24.701Z,7.55
2022-08-28T05:14:51.681Z,6.28
2022-08-28T05:17:18.699Z,7.32
2022-08-28T05:19:45.781Z,7.70
2022-08-28T05:22:12.769Z,6.95
2022-08-28T05:24:40.183Z,6.85
2022-08-28T05:27:09.131Z,6.50
2022-08-28T05:29:36.518Z,6.93
2022-08-28T05:32:04.807Z,7.35
2022-08-28T05:34:31.892Z,6.72
2022-08-28T05:36:59.406Z,6.80
2022-08-28T05:39:26.422Z,6.22
2022-08-28T05:41:53.753Z,6.57
2022-08-28T05:44:20.999Z,6.65
2022-08-28T05:46:48.615Z,7.35
2022-08-28T05:49:18.226Z,7.80
2022-08-28T05:51:46.173Z,7.65
2022-08-28T05:54:15.599Z,6.45
2022-08-28T05:56:45.157Z,7.20
2022-08-28T05:59:14.264Z,7.57
2022-08-28T06:01:47.792Z,7.72
2022-08-28T06:04:23.363Z,7.57
2022-08-28T06:06:50.678Z,7.05
2022-08-28T06:09:29.930Z,7.75
2022-08-28T06:11:59.832Z,7.85
2022-08-28T06:14:27.689Z,7.80
2022-08-28T06:16:57.194Z,8.15
2022-08-28T06:19:27.003Z,8.77
2022-08-28T06:22:00.893Z,9.02
2022-08-28T06:24:29.379Z,9.25
2022-08-28T06:26:58.695Z,8.52
2022-08-28T06:29:27.799Z,9.25
2022-08-28T06:31:58.964Z,9.07
2022-08-28T06:34:27.253Z,9.80
2022-08-28T06:36:55.440Z,9.45
2022-08-28T06:39:23.574Z,9.10
2022-08-28T06:41:50.617Z,8.82
2022-08-28T06:44:20.809Z,7.85
2022-08-28T06:46:53.987Z,7.55
2022-08-28T06:49:21.937Z,8.50
2022-08-28T06:51:49.238Z,7.13
2022-08-28T06:54:22.226Z,7.47
2022-08-28T06:56:51.850Z,8.38
2022-08-28T06:59:18.880Z,7.35
2022-08-28T07:01:45.966Z,7.95
2022-08-28T07:04:16.063Z,7.68
2022-08-28T07:06:53.764Z,7.63
2022-08-28T07:09:23.861Z,6.90
2022-08-28T07:11:51.350Z,7.18
2022-08-28T07:14:18.598Z,7.40
2022-08-28T07:16:46.026Z,7.55
2022-08-28T07:19:13.721Z,7.72
2022-08-28T07:21:43.976Z,8.05
2022-08-28T07:24:13.668Z,7.32
2022-08-28T07:26:43.504Z,7.88
2022-08-28T07:29:12.034Z,7.68
2022-08-28T07:31:43.949Z,7.63
2022-08-28T07:34:12.637Z,7.82
2022-08-28T07:36:40.522Z,6.88
2022-08-28T07:39:08.734Z,6.63
2022-08-28T07:41:39.314Z,7.45
2022-08-28T07:44:26.431Z,6.47
2022-08-28T07:46:55.888Z,7.15
2022-08-28T07:49:24.091Z,6.75
2022-08-28T07:51:54.054Z,7.15
2022-08-28T07:54:23.264Z,6.57
2022-08-28T07:56:51.476Z,6.10
2022-08-28T07:59:19.626Z,6.55
2022-08-28T08:01:48.778Z,6.43
2022-08-28T08:04:17.523Z,6.22
2022-08-28T08:06:45.259Z,6.70
2022-08-28T08:09:16.065Z,7.07
2022-08-28T08:11:43.885Z,7.37
2022-08-28T08:14:11.993Z,6.75
2022-08-28T08:16:43.399Z,7.03
2022-08-28T08:19:14.092Z,7.38
2022-08-28T08:21:48.432Z,5.97
2022-08-28T08:24:26.831Z,6.68
2022-08-28T08:29:32.359Z,7.35
2022-08-28T08:32:07.876Z,7.05
2022-08-28T08:34:41.424Z,5.88
2022-08-28T08:37:09.152Z,6.63
2022-08-28T08:39:37.317Z,6.65
2022-08-28T08:42:20.178Z,5.43
2022-08-28T08:44:48.767Z,6.28
2022-08-28T08:47:32.774Z,6.20
2022-08-28T08:50:05.900Z,4.78
2022-08-28T08:52:52.907Z,6.30
2022-08-28T08:55:24.587Z,5.50
2022-08-28T09:01:22.180Z,5.68
2022-08-28T09:03:49.240Z,6.47
2022-08-28T09:06:29.813Z,5.63
2022-08-28T09:09:03.025Z,6.00
2022-08-28T09:11:56.563Z,5.32
2022-08-28T09:14:57.597Z,6.82
2022-08-28T09:17:33.892Z,6.35
2022-08-28T09:20:01.240Z,6.60
2022-08-28T09:22:28.235Z,5.13
2022-08-28T09:24:55.433Z,7.97
2022-08-28T09:27:27.935Z,5.18
2022-08-28T09:30:08.065Z,5.88
2022-08-28T09:32:45.726Z,6.72
2022-08-28T09:35:27.144Z,5.88
2022-08-28T09:37:54.668Z,5.32
2022-08-28T09:40:50.058Z,6.30
2022-08-28T09:43:27.688Z,5.63
2022-08-28T09:46:21.437Z,5.55
2022-08-28T09:48:52.357Z,5.85
2022-08-28T09:51:22.305Z,6.28
2022-08-28T09:53:52.287Z,6.25
2022-08-28T09:56:25.923Z,6.47
2022-08-28T09:59:00.114Z,6.35
2022-08-28T10:01:43.396Z,5.53
2022-08-28T10:04:37.070Z,5.28
2022-08-28T10:07:18.484Z,7.38
2022-08-28T10:10:32.592Z,5.28
2022-08-28T10:13:31.275Z,6.07
2022-08-28T10:16:56.868Z,6.55
2022-08-28T10:19:41.262Z,5.97
2022-08-28T10:22:25.459Z,4.72
2022-08-28T10:25:07.407Z,4.75
2022-08-28T10:28:19.392Z,4.60
2022-08-28T10:33:41.048Z,5.07
2022-08-28T10:36:33.488Z,4.57
2022-08-28T10:39:22.785Z,4.63
2022-08-28T10:42:01.998Z,4.93
2022-08-28T10:44:49.565Z,5.28
2022-08-28T10:47:20.238Z,4.45
2022-08-28T10:49:53.565Z,4.50
2022-08-28T10:55:23.097Z,4.80
2022-08-28T10:58:24.269Z,5.55
2022-08-28T11:01:06.373Z,5.10
2022-08-28T11:03:47.004Z,4.35
2022-08-28T11:06:27.390Z,4.53
2022-08-28T11:08:59.368Z,3.85
2022-08-28T11:11:46.687Z,4.35
2022-08-28T11:14:48.372Z,4.45
2022-08-28T11:17:25.401Z,4.03
2022-08-28T11:20:22.768Z,4.05
2022-08-28T11:23:07.829Z,3.72
2022-08-28T11:25:57.621Z,4.10
2022-08-28T11:28:25.870Z,4.30
2022-08-28T11:30:58.938Z,4.55
2022-08-28T11:33:49.839Z,3.25
2022-08-28T11:36:19.839Z,4.83
2022-08-28T11:38:53.118Z,2.65
2022-08-28T11:41:22.561Z,3.47
2022-08-28T11:44:09.227Z,4.45
2022-08-28T11:46:41.246Z,3.50
2022-08-28T11:49:26.588Z,3.58
2022-08-28T11:52:34.301Z,3.88
2022-08-28T11:55:29.808Z,4.03
2022-08-28T11:58:16.187Z,3.85
2022-08-28T12:01:01.613Z,4.43
2022-08-28T12:03:59.170Z,3.88
2022-08-28T12:06:45.307Z,4.38
2022-08-28T12:09:39.142Z,3.20
2022-08-28T12:12:20.904Z,2.95
2022-08-28T12:14:47.814Z,3.83
2022-08-28T12:17:31.148Z,3.65
2022-08-28T12:20:10.633Z,3.80
2022-08-28T12:23:01.050Z,3.45
2022-08-28T12:26:00.826Z,3.70
2022-08-28T12:28:55.518Z,3.67
2022-08-28T12:31:55.983Z,3.78
2022-08-28T12:34:31.543Z,3.40
2022-08-28T12:37:03.390Z,4.45
2022-08-28T12:39:33.398Z,3.90
2022-08-28T12:42:03.735Z,3.50
2022-08-28T12:44:33.338Z,4.20
2022-08-28T12:47:00.702Z,3.55
2022-08-28T12:49:37.054Z,2.92
2022-08-28T12:52:21.312Z,3.42
2022-08-28T12:54:51.566Z,3.17
2022-08-28T12:57:22.556Z,3.00
2022-08-28T12:59:55.534Z,2.90
2022-08-28T13:02:33.664Z,4.13
2022-08-28T13:05:07.856Z,3.65
2022-08-28T13:07:45.034Z,3.03
2022-08-28T13:10:39.255Z,2.90
2022-08-28T13:13:19.598Z,3.88
2022-08-28T13:15:57.913Z,3.33
2022-08-28T13:18:43.117Z,4.13
2022-08-28T13:21:31.718Z,4.10
2022-08-28T13:24:23.773Z,4.03
2022-08-28T13:27:24.171Z,4.35
2022-08-28T13:29:59.862Z,3.45
2022-08-28T13:32:31.683Z,4.28
2022-08-28T13:35:21.954Z,3.50
2022-08-28T13:37:51.550Z,3.50
2022-08-28T13:40:55.796Z,3.83
2022-08-28T13:43:13.738Z,3.10
2022-08-28T13:45:45.196Z,3.63
2022-08-28T13:48:26.655Z,3.00
2022-08-28T13:53:27.334Z,3.40
2022-08-28T13:55:54.530Z,2.90
2022-08-28T13:58:21.517Z,3.30
2022-08-28T14:00:51.894Z,3.58
2022-08-28T14:03:38.811Z,2.30
2022-08-28T14:06:12.261Z,3.25
2022-08-28T14:08:45.089Z,2.35
2022-08-28T14:11:15.078Z,2.88
2022-08-28T14:13:47.028Z,3.08
2022-08-28T14:16:23.553Z,3.13
2022-08-28T14:18:53.163Z,2.72
2022-08-28T14:21:21.431Z,2.72
2022-08-28T14:23:48.442Z,3.80
2022-08-28T14:26:15.435Z,3.85
2022-08-28T14:28:42.908Z,4.13
2022-08-28T14:31:14.250Z,3.50
2022-08-28T14:33:45.264Z,3.42
2022-08-28T14:36:21.218Z,2.78
2022-08-28T14:38:53.690Z,2.15
2022-08-28T14:41:23.565Z,3.63
2022-08-28T14:43:51.525Z,3.40
2022-08-28T14:46:34.396Z,3.30
2022-08-28T14:49:08.418Z,2.63
2022-08-28T14:51:38.876Z,4.28
2022-08-28T14:54:07.562Z,2.93
2022-08-28T14:56:35.691Z,2.53
2022-08-28T14:59:06.023Z,3.08
2022-08-28T15:01:40.915Z,2.78
2022-08-28T15:04:13.382Z,3.38
2022-08-28T15:06:42.602Z,3.38
2022-08-28T15:09:15.034Z,3.00
2022-08-28T15:11:43.745Z,2.58
2022-08-28T15:14:11.735Z,2.70
2022-08-28T15:16:42.984Z,3.35
2022-08-28T15:19:12.351Z,3.17
2022-08-28T15:21:54.402Z,3.13
2022-08-28T15:24:26.563Z,2.83
2022-08-28T15:26:53.918Z,2.83
2022-08-28T15:29:21.259Z,2.55
2022-08-28T15:31:50.508Z,2.75
2022-08-28T15:34:28.656Z,2.92
2022-08-28T15:36:57.269Z,2.10
2022-08-28T15:39:47.804Z,2.65
2022-08-28T15:42:15.734Z,2.20
2022-08-28T15:44:43.054Z,2.88
2022-08-28T15:47:10.690Z,2.10
2022-08-28T15:49:43.486Z,2.10
2022-08-28T15:52:18.492Z,2.85
2022-08-28T15:54:45.512Z,2.33
2022-08-28T15:57:12.523Z,1.67
2022-08-28T15:59:50.023Z,2.90
2022-08-28T16:02:23.881Z,2.58
2022-08-28T16:04:53.310Z,2.03
2022-08-28T16:07:22.405Z,2.75
2022-08-28T16:09:50.342Z,2.60
2022-08-28T16:12:18.235Z,2.83
2022-08-28T16:14:45.261Z,3.10
2022-08-28T16:17:12.514Z,2.88
2022-08-28T16:19:40.428Z,2.70
2022-08-28T16:22:09.281Z,2.85
2022-08-28T16:24:37.189Z,2.53
2022-08-28T16:27:06.411Z,2.85
2022-08-28T16:29:36.735Z,2.80
2022-08-28T16:32:05.458Z,2.90
2022-08-28T16:34:33.895Z,3.00
2022-08-28T16:37:01.391Z,2.60
2022-08-28T16:39:29.098Z,2.33
2022-08-28T16:41:56.177Z,2.70
2022-08-28T16:44:26.614Z,2.75
2022-08-28T16:46:55.437Z,2.50
2022-08-28T16:49:23.612Z,3.08
2022-08-28T16:51:51.046Z,2.70
2022-08-28T16:54:18.507Z,2.45
2022-08-28T16:56:46.158Z,2.67
2022-08-28T16:59:17.401Z,2.90
2022-08-28T17:04:12.299Z,2.03
2022-08-28T17:06:40.097Z,2.40
2022-08-28T17:09:07.240Z,2.55
2022-08-28T17:11:34.301Z,2.97
2022-08-28T17:14:02.039Z,2.72
2022-08-28T17:16:32.809Z,2.80
2022-08-28T17:19:00.028Z,3.05
2022-08-28T17:21:45.317Z,2.90
2022-08-28T17:24:13.174Z,2.88
2022-08-28T17:26:41.721Z,3.17
2022-08-28T17:29:08.793Z,3.13
2022-08-28T17:31:36.183Z,2.80
2022-08-28T17:34:03.612Z,2.60
2022-08-28T17:36:33.242Z,2.67
2022-08-28T17:39:12.010Z,2.67
2022-08-28T17:41:41.626Z,2.78
2022-08-28T17:44:09.205Z,2.88
2022-08-28T17:46:38.068Z,2.40
2022-08-28T17:49:07.591Z,1.90
2022-08-28T17:51:43.544Z,2.63
2022-08-28T17:54:13.930Z,2.78
2022-08-28T17:56:41.769Z,2.80
2022-08-28T17:59:10.064Z,2.50
2022-08-28T18:01:38.450Z,2.22
2022-08-28T18:04:05.801Z,2.50
2022-08-28T18:06:33.028Z,2.65
2022-08-28T18:09:00.533Z,2.33
2022-08-28T18:11:28.537Z,3.05
2022-08-28T18:13:55.756Z,2.20
2022-08-28T18:16:26.480Z,2.38
2022-08-28T18:18:57.089Z,2.35
2022-08-28T18:21:24.480Z,2.45
2022-08-28T18:23:51.628Z,2.47
2022-08-28T18:26:18.747Z,2.85
2022-08-28T18:28:46.260Z,2.60
2022-08-28T18:31:13.666Z,3.13
2022-08-28T18:33:40.774Z,2.45
2022-08-28T18:36:10.688Z,2.50
2022-08-28T18:38:38.234Z,2.55
2022-08-28T18:41:07.192Z,2.20
2022-08-28T18:43:34.872Z,2.75
2022-08-28T18:46:03.966Z,2.78
2022-08-28T18:48:31.914Z,2.65
2022-08-28T18:50:58.990Z,2.47
2022-08-28T18:53:26.533Z,2.65
2022-08-28T18:55:55.107Z,2.83
2022-08-28T18:58:23.391Z,2.50
2022-08-28T19:00:51.257Z,2.65
2022-08-28T19:03:18.734Z,3.00
2022-08-28T19:05:46.181Z,2.92
2022-08-28T19:08:14.290Z,2.17
2022-08-28T19:10:41.871Z,2.63
2022-08-28T19:13:09.102Z,2.83
2022-08-28T19:15:37.245Z,3.25
2022-08-28T19:18:05.544Z,3.10
2022-08-28T19:20:33.401Z,2.38
2022-08-28T19:23:00.884Z,2.13
2022-08-28T19:25:30.578Z,2.70
2022-08-28T19:27:59.883Z,2.50
2022-08-28T19:30:31.150Z,2.65
2022-08-28T19:32:59.033Z,2.70
2022-08-28T19:35:26.349Z,2.70
2022-08-28T19:37:54.070Z,2.75
2022-08-28T19:40:22.041Z,2.45
2022-08-28T19:42:50.131Z,2.25
2022-08-28T19:45:18.275Z,2.70
2022-08-28T19:47:46.896Z,2.67
2022-08-28T19:50:15.097Z,2.80
2022-08-28T19:52:43.651Z,2.40
2022-08-28T19:55:19.251Z,2.10
2022-08-28T19:57:48.384Z,2.38
2022-08-28T20:00:22.728Z,2.40
2022-08-28T20:02:52.251Z,2.35
2022-08-28T20:05:21.314Z,2.47
2022-08-28T20:07:49.140Z,2.70
2022-08-28T20:10:16.861Z,2.65
2022-08-28T20:12:48.361Z,2.20
2022-08-28T20:15:18.239Z,2.67
2022-08-28T20:17:49.491Z,3.13
2022-08-28T20:20:20.660Z,2.60
2022-08-28T20:22:47.946Z,2.63
2022-08-28T20:25:15.707Z,2.88
2022-08-28T20:27:42.718Z,2.60
2022-08-28T20:30:11.522Z,3.45
2022-08-28T20:32:40.866Z,2.70
2022-08-28T20:35:10.693Z,3.00
2022-08-28T20:37:45.382Z,3.00
2022-08-28T20:40:17.161Z,3.20
2022-08-28T20:42:45.159Z,3.00
2022-08-28T20:45:15.270Z,3.05
2022-08-28T20:47:42.739Z,2.63
2022-08-28T20:50:11.175Z,2.45
2022-08-28T20:52:39.200Z,2.42
2022-08-28T20:55:08.193Z,2.15
2022-08-28T20:57:35.970Z,2.47
2022-08-28T21:00:08.366Z,2.80
2022-08-28T21:02:35.590Z,2.83
2022-08-28T21:05:02.914Z,2.50
2022-08-28T21:07:30.257Z,3.00
2022-08-28T21:10:04.124Z,2.53
2022-08-28T21:12:36.761Z,2.47
2022-08-28T21:15:06.581Z,2.97
2022-08-28T21:17:33.895Z,2.70
2022-08-28T21:20:05.979Z,2.55
2022-08-28T21:22:35.389Z,2.53
2022-08-28T21:25:05.672Z,2.63
2022-08-28T21:27:32.874Z,2.90
2022-08-28T21:30:00.832Z,2.50
2022-08-28T21:32:29.451Z,2.42
2022-08-28T21:34:57.281Z,2.72
2022-08-28T21:37:24.414Z,2.33
2022-08-28T21:39:52.108Z,2.65
2022-08-28T21:42:21.042Z,3.08
2022-08-28T21:44:51.941Z,2.95
2022-08-28T21:47:22.928Z,2.63
2022-08-28T21:49:52.706Z,2.60
2022-08-28T21:52:22.030Z,2.97
2022-08-28T21:54:49.374Z,2.67
2022-08-28T21:57:17.772Z,2.10
2022-08-28T21:59:44.851Z,2.50
2022-08-28T22:02:12.007Z,2.97
2022-08-28T22:04:39.117Z,2.20
2022-08-28T22:07:06.644Z,2.17
2022-08-28T22:09:33.730Z,2.45
2022-08-28T22:12:01.351Z,2.40
2022-08-28T22:14:28.523Z,3.13
2022-08-28T22:16:56.079Z,2.47
2022-08-28T22:19:23.224Z,2.50
2022-08-28T22:22:09.102Z,2.45
2022-08-28T22:24:37.583Z,2.90
2022-08-28T22:27:06.009Z,2.80
2022-08-28T22:29:36.544Z,2.70
2022-08-28T22:32:06.063Z,2.90
2022-08-28T22:34:42.235Z,3.05
2022-08-28T22:37:11.537Z,2.63
2022-08-28T22:39:40.411Z,2.72
2022-08-28T22:42:08.312Z,2.80
2022-08-28T22:44:36.000Z,3.10
2022-08-28T22:47:03.550Z,2.97
2022-08-28T22:49:30.811Z,2.92
2022-08-28T22:51:58.353Z,3.10
2022-08-28T22:54:27.721Z,2.67
2022-08-28T22:56:54.711Z,2.85
2022-08-28T22:59:22.209Z,2.13
2022-08-28T23:01:49.356Z,2.85
2022-08-28T23:04:16.464Z,2.78
2022-08-28T23:06:43.681Z,2.25
2022-08-28T23:09:11.146Z,2.67
2022-08-28T23:11:38.453Z,2.72
2022-08-28T23:14:05.995Z,2.67
2022-08-28T23:16:35.195Z,2.33
2022-08-28T23:19:08.901Z,2.90
2022-08-28T23:21:40.752Z,2.58
2022-08-28T23:24:11.847Z,2.90
2022-08-28T23:26:38.834Z,3.08
2022-08-28T23:29:05.886Z,2.50
2022-08-28T23:31:33.029Z,2.58
2022-08-28T23:34:00.413Z,2.55
2022-08-28T23:36:27.520Z,2.15
2022-08-28T23:38:55.053Z,3.25
2022-08-28T23:41:22.103Z,2.53
2022-08-28T23:43:49.611Z,2.72
2022-08-28T23:46:18.333Z,2.85
2022-08-28T23:48:45.946Z,2.33
2022-08-28T23:51:16.998Z,2.97
2022-08-28T23:53:45.349Z,2.70
2022-08-28T23:56:12.833Z,2.42
2022-08-28T23:58:43.262Z,2.45
